createdAt,value
2023-03-26T00:01:01.882Z,7.10
2023-03-26T00:03:29.880Z,7.67
2023-03-26T00:06:08.833Z,6.50
2023-03-26T00:08:37.075Z,7.10
2023-03-26T00:11:05.565Z,6.77
2023-03-26T00:13:33.130Z,7.60
2023-03-26T00:15:59.839Z,7.40
2023-03-26T00:18:31.480Z,7.23
2023-03-26T00:20:59.508Z,7.83
2023-03-26T00:23:28.157Z,7.07
2023-03-26T00:25:56.103Z,7.93
2023-03-26T00:28:24.203Z,6.90
2023-03-26T00:30:58.217Z,7.60
2023-03-26T00:33:24.904Z,8.40
2023-03-26T00:35:56.663Z,6.37
2023-03-26T00:38:25.520Z,7.23
2023-03-26T00:40:52.686Z,7.60
2023-03-26T00:43:22.637Z,8.07
2023-03-26T00:45:51.355Z,7.57
2023-03-26T00:48:18.854Z,6.97
2023-03-26T00:50:47.078Z,6.83
2023-03-26T00:53:14.369Z,7.43
2023-03-26T00:55:42.560Z,8.13
2023-03-26T00:58:10.478Z,6.87
2023-03-26T01:00:44.616Z,7.47
2023-03-26T01:03:24.790Z,7.47
2023-03-26T01:06:04.508Z,7.77
2023-03-26T01:08:45.003Z,6.90
2023-03-26T01:11:23.764Z,7.03
2023-03-26T01:14:10.109Z,6.90
2023-03-26T01:16:41.668Z,7.30
2023-03-26T01:19:16.393Z,6.90
2023-03-26T01:21:43.014Z,6.57
2023-03-26T01:24:10.172Z,7.07
2023-03-26T01:26:43.511Z,6.33
2023-03-26T01:29:22.013Z,6.97
2023-03-26T01:32:11.623Z,6.37
2023-03-26T01:35:02.957Z,7.17
2023-03-26T01:37:52.376Z,6.60
2023-03-26T01:40:28.199Z,7.00
2023-03-26T01:43:10.727Z,7.23
2023-03-26T01:45:41.094Z,6.60
2023-03-26T01:48:08.366Z,6.37
2023-03-26T01:50:35.105Z,8.00
2023-03-26T01:53:01.936Z,7.27
2023-03-26T01:56:02.068Z,6.50
2023-03-26T01:58:40.764Z,5.77
2023-03-26T02:01:24.213Z,6.63
2023-03-26T02:03:58.879Z,6.10
2023-03-26T02:07:01.896Z,7.90
2023-03-26T02:09:31.991Z,6.97
2023-03-26T02:12:00.432Z,6.93
2023-03-26T02:14:30.203Z,6.43
2023-03-26T02:16:58.470Z,6.83
2023-03-26T02:19:25.205Z,6.77
2023-03-26T02:21:51.754Z,6.70
2023-03-26T02:24:21.440Z,7.30
2023-03-26T02:26:48.008Z,6.40
2023-03-26T02:29:20.248Z,6.70
2023-03-26T02:31:50.319Z,6.43
2023-03-26T02:34:17.320Z,6.47
2023-03-26T02:36:43.918Z,6.13
2023-03-26T02:39:11.132Z,6.03
2023-03-26T02:41:38.563Z,5.67
2023-03-26T02:44:08.318Z,6.37
2023-03-26T02:46:34.908Z,6.50
2023-03-26T02:49:01.482Z,6.03
2023-03-26T02:51:28.927Z,6.17
2023-03-26T02:53:55.483Z,5.90
2023-03-26T02:56:22.009Z,5.67
2023-03-26T02:58:48.534Z,6.97
2023-03-26T03:01:18.075Z,6.50
2023-03-26T03:03:47.149Z,6.57
2023-03-26T03:06:14.371Z,6.47
2023-03-26T03:08:41.468Z,6.17
2023-03-26T03:11:14.855Z,6.93
2023-03-26T03:13:42.096Z,6.00
2023-03-26T03:16:09.293Z,6.37
2023-03-26T03:18:36.285Z,5.93
2023-03-26T03:21:03.966Z,6.47
2023-03-26T03:23:30.681Z,5.73
2023-03-26T03:25:58.219Z,5.47
2023-03-26T03:28:26.498Z,6.53
2023-03-26T03:30:53.193Z,6.70
2023-03-26T03:33:20.542Z,6.73
2023-03-26T03:35:49.357Z,6.23
2023-03-26T03:38:17.373Z,6.40
2023-03-26T03:40:44.289Z,6.90
2023-03-26T03:43:10.904Z,7.20
2023-03-26T03:45:37.564Z,6.83
2023-03-26T03:48:04.461Z,6.03
2023-03-26T03:50:32.616Z,6.17
2023-03-26T03:53:00.948Z,6.20
2023-03-26T03:55:27.606Z,6.20
2023-03-26T03:57:54.762Z,6.43
2023-03-26T04:00:22.464Z,5.80
2023-03-26T04:02:49.160Z,6.53
2023-03-26T04:05:15.847Z,6.10
2023-03-26T04:07:42.371Z,6.10
2023-03-26T04:10:10.026Z,5.63
2023-03-26T04:12:36.752Z,6.57
2023-03-26T04:15:03.539Z,6.37
2023-03-26T04:17:30.464Z,6.30
2023-03-26T04:19:57.334Z,6.07
2023-03-26T04:22:26.092Z,6.80
2023-03-26T04:24:54.257Z,6.40
2023-03-26T04:27:27.701Z,5.87
2023-03-26T04:29:54.298Z,6.73
2023-03-26T04:32:26.391Z,5.93
2023-03-26T04:34:53.551Z,6.70
2023-03-26T04:37:27.593Z,6.57
2023-03-26T04:39:54.990Z,6.20
2023-03-26T04:42:21.568Z,6.53
2023-03-26T04:44:52.102Z,6.40
2023-03-26T04:47:18.988Z,6.10
2023-03-26T04:49:47.221Z,6.70
2023-03-26T04:52:14.616Z,6.20
2023-03-26T04:54:44.048Z,6.90
2023-03-26T04:57:29.387Z,7.30
2023-03-26T04:59:56.208Z,7.60
2023-03-26T05:02:22.948Z,6.77
2023-03-26T05:04:49.853Z,7.03
2023-03-26T05:07:23.636Z,6.57
2023-03-26T05:09:50.192Z,7.27
2023-03-26T05:12:17.111Z,5.40
2023-03-26T05:14:43.782Z,6.10
2023-03-26T05:17:14.923Z,7.17
2023-03-26T05:19:41.662Z,5.90
2023-03-26T05:22:08.190Z,6.07
2023-03-26T05:24:34.684Z,6.57
2023-03-26T05:27:01.407Z,7.17
2023-03-26T05:29:27.920Z,6.83
2023-03-26T05:31:54.429Z,5.97
2023-03-26T05:34:24.022Z,6.90
2023-03-26T05:36:50.613Z,6.17
2023-03-26T05:39:17.171Z,6.80
2023-03-26T05:41:43.718Z,6.37
2023-03-26T05:44:10.618Z,6.23
2023-03-26T05:46:37.263Z,6.10
2023-03-26T05:49:03.990Z,5.57
2023-03-26T05:51:30.516Z,6.00
2023-03-26T05:53:57.021Z,6.40
2023-03-26T05:56:23.747Z,5.77
2023-03-26T05:58:51.993Z,5.70
2023-03-26T06:01:19.578Z,5.83
2023-03-26T06:03:46.985Z,6.00
2023-03-26T06:06:16.635Z,5.67
2023-03-26T06:09:02.362Z,5.33
2023-03-26T06:11:29.899Z,5.83
2023-03-26T06:13:56.431Z,5.13
2023-03-26T06:16:27.798Z,5.70
2023-03-26T06:18:56.819Z,5.63
2023-03-26T06:21:25.369Z,5.73
2023-03-26T06:23:51.970Z,6.00
2023-03-26T06:26:18.643Z,5.40
2023-03-26T06:28:45.215Z,5.50
2023-03-26T06:31:11.918Z,5.53
2023-03-26T06:33:38.584Z,5.93
2023-03-26T06:36:06.044Z,5.80
2023-03-26T06:38:32.597Z,5.80
2023-03-26T06:41:03.945Z,5.20
2023-03-26T06:43:33.462Z,5.47
2023-03-26T06:46:01.211Z,5.67
2023-03-26T06:48:27.868Z,5.80
2023-03-26T06:50:54.981Z,5.90
2023-03-26T06:53:21.838Z,5.67
2023-03-26T06:55:48.382Z,6.07
2023-03-26T06:58:16.863Z,6.67
2023-03-26T07:00:43.691Z,6.07
2023-03-26T07:03:11.189Z,6.00
2023-03-26T07:05:38.701Z,6.43
2023-03-26T07:08:05.660Z,5.87
2023-03-26T07:10:32.363Z,6.17
2023-03-26T07:12:58.956Z,6.17
2023-03-26T07:15:26.991Z,6.40
2023-03-26T07:17:53.494Z,6.20
2023-03-26T07:20:20.316Z,5.90
2023-03-26T07:22:47.302Z,5.70
2023-03-26T07:25:14.907Z,5.63
2023-03-26T07:27:44.271Z,6.00
2023-03-26T07:30:29.384Z,5.10
2023-03-26T07:33:03.833Z,5.77
2023-03-26T07:35:49.126Z,6.00
2023-03-26T07:38:18.616Z,5.43
2023-03-26T07:41:09.059Z,5.20
2023-03-26T07:44:08.557Z,5.57
2023-03-26T07:46:36.835Z,5.60
2023-03-26T07:49:04.643Z,5.60
2023-03-26T07:51:32.813Z,4.90
2023-03-26T07:54:00.713Z,4.40
2023-03-26T07:56:42.793Z,5.10
2023-03-26T07:59:28.073Z,4.30
2023-03-26T08:02:21.590Z,5.53
2023-03-26T08:05:05.411Z,4.97
2023-03-26T08:08:17.136Z,4.67
2023-03-26T08:11:07.675Z,4.77
2023-03-26T08:13:56.964Z,5.17
2023-03-26T08:16:42.603Z,5.27
2023-03-26T08:19:34.076Z,5.07
2023-03-26T08:22:27.388Z,5.27
2023-03-26T08:25:02.262Z,5.63
2023-03-26T08:27:38.164Z,5.70
2023-03-26T08:30:16.123Z,5.90
2023-03-26T08:32:49.026Z,5.30
2023-03-26T08:35:15.558Z,4.90
2023-03-26T08:37:45.164Z,5.50
2023-03-26T08:40:12.249Z,5.40
2023-03-26T08:43:17.088Z,5.40
2023-03-26T08:46:06.496Z,5.80
2023-03-26T08:48:51.646Z,5.43
2023-03-26T08:51:42.751Z,4.97
2023-03-26T08:54:09.204Z,4.67
2023-03-26T08:57:00.472Z,4.80
2023-03-26T08:59:49.676Z,5.00
2023-03-26T09:02:22.257Z,4.53
2023-03-26T09:04:58.230Z,5.70
2023-03-26T09:07:33.882Z,5.23
2023-03-26T09:10:37.974Z,5.10
2023-03-26T09:13:33.847Z,4.67
2023-03-26T09:16:33.547Z,4.73
2023-03-26T09:19:38.329Z,4.80
2023-03-26T09:22:42.196Z,4.80
2023-03-26T09:25:28.069Z,4.47
2023-03-26T09:28:32.372Z,5.00
2023-03-26T09:31:27.062Z,4.60
2023-03-26T09:33:56.329Z,4.40
2023-03-26T09:36:51.644Z,4.47
2023-03-26T09:39:26.559Z,4.33
2023-03-26T09:42:03.773Z,4.70
2023-03-26T09:44:57.921Z,4.53
2023-03-26T09:47:34.814Z,3.80
2023-03-26T09:50:32.177Z,4.30
2023-03-26T09:53:08.141Z,4.73
2023-03-26T09:55:53.357Z,4.77
2023-03-26T09:58:56.583Z,4.40
2023-03-26T10:02:07.509Z,4.40
2023-03-26T10:04:54.039Z,4.77
2023-03-26T10:08:06.513Z,4.63
2023-03-26T10:10:50.107Z,3.93
2023-03-26T10:13:49.713Z,3.77
2023-03-26T10:16:55.125Z,3.87
2023-03-26T10:19:45.495Z,4.00
2023-03-26T10:22:18.273Z,3.83
2023-03-26T10:25:14.759Z,4.30
2023-03-26T10:27:49.373Z,4.27
2023-03-26T10:30:42.774Z,4.93
2023-03-26T10:33:25.267Z,5.03
2023-03-26T10:36:17.239Z,4.57
2023-03-26T10:38:55.700Z,4.07
2023-03-26T10:41:49.499Z,4.83
2023-03-26T10:44:43.291Z,4.80
2023-03-26T10:47:31.442Z,4.60
2023-03-26T10:50:22.782Z,4.33
2023-03-26T10:52:53.505Z,4.47
2023-03-26T10:55:33.250Z,4.17
2023-03-26T10:58:49.200Z,3.90
2023-03-26T11:01:32.259Z,4.20
2023-03-26T11:04:18.889Z,4.57
2023-03-26T11:07:05.190Z,4.70
2023-03-26T11:09:58.071Z,4.10
2023-03-26T11:12:36.071Z,4.37
2023-03-26T11:15:14.492Z,4.33
2023-03-26T11:18:02.717Z,4.83
2023-03-26T11:20:56.146Z,4.70
2023-03-26T11:24:05.001Z,4.67
2023-03-26T11:26:55.358Z,4.70
2023-03-26T11:29:49.724Z,5.20
2023-03-26T11:32:51.749Z,4.83
2023-03-26T11:35:39.459Z,4.93
2023-03-26T11:38:33.362Z,4.90
2023-03-26T11:41:01.892Z,4.43
2023-03-26T11:43:34.806Z,4.50
2023-03-26T11:46:05.991Z,4.53
2023-03-26T11:48:41.817Z,4.40
2023-03-26T11:51:14.572Z,4.70
2023-03-26T11:53:46.801Z,4.23
2023-03-26T11:56:25.151Z,5.17
2023-03-26T11:58:57.904Z,5.00
2023-03-26T12:01:30.921Z,5.30
2023-03-26T12:04:03.755Z,5.23
2023-03-26T12:06:32.784Z,5.10
2023-03-26T12:08:59.334Z,5.60
2023-03-26T12:11:28.238Z,5.40
2023-03-26T12:14:01.053Z,5.07
2023-03-26T12:16:28.112Z,5.27
2023-03-26T12:19:06.056Z,5.20
2023-03-26T12:21:49.444Z,5.13
2023-03-26T12:24:42.293Z,5.00
2023-03-26T12:27:24.851Z,5.10
2023-03-26T12:29:54.891Z,4.97
2023-03-26T12:34:48.931Z,4.87
2023-03-26T12:37:41.636Z,5.50
2023-03-26T12:40:29.175Z,4.93
2023-03-26T12:44:49.345Z,5.10
2023-03-26T12:46:44.228Z,5.57
2023-03-26T12:48:40.946Z,5.50
2023-03-26T12:51:20.107Z,5.23
2023-03-26T12:54:15.147Z,4.90
2023-03-26T12:57:12.518Z,5.23
2023-03-26T13:00:08.730Z,5.10
2023-03-26T13:03:02.723Z,5.10
2023-03-26T13:05:56.026Z,5.40
2023-03-26T13:08:52.559Z,5.53
2023-03-26T13:11:39.639Z,5.03
2023-03-26T13:14:39.390Z,5.50
2023-03-26T13:17:09.084Z,5.47
2023-03-26T13:20:11.960Z,5.17
2023-03-26T13:23:00.364Z,5.07
2023-03-26T13:25:36.389Z,5.07
2023-03-26T13:28:36.877Z,5.30
2023-03-26T13:31:29.542Z,4.57
2023-03-26T13:34:11.109Z,5.63
2023-03-26T13:37:03.934Z,4.90
2023-03-26T13:39:50.924Z,4.63
2023-03-26T13:42:36.348Z,5.30
2023-03-26T13:45:06.217Z,5.37
2023-03-26T13:47:46.157Z,4.63
2023-03-26T13:50:30.767Z,4.40
2023-03-26T13:53:06.245Z,5.07
2023-03-26T13:55:46.692Z,4.97
2023-03-26T13:58:16.307Z,4.57
2023-03-26T14:00:58.034Z,4.33
2023-03-26T14:03:35.553Z,4.30
2023-03-26T14:06:10.706Z,4.97
2023-03-26T14:08:45.046Z,4.80
2023-03-26T14:11:17.388Z,4.70
2023-03-26T14:13:52.364Z,4.17
2023-03-26T14:16:27.807Z,4.87
2023-03-26T14:19:08.689Z,4.80
2023-03-26T14:22:13.143Z,5.10
2023-03-26T14:24:53.777Z,4.93
2023-03-26T14:27:38.807Z,4.77
2023-03-26T14:30:17.699Z,4.40
2023-03-26T14:32:54.262Z,4.13
2023-03-26T14:35:37.640Z,3.87
2023-03-26T14:38:19.615Z,4.13
2023-03-26T14:40:57.781Z,3.77
2023-03-26T14:44:01.276Z,4.40
2023-03-26T14:46:51.127Z,4.27
2023-03-26T14:49:39.106Z,4.33
2023-03-26T14:52:18.264Z,4.80
2023-03-26T14:54:48.167Z,3.90
2023-03-26T14:57:52.401Z,4.40
2023-03-26T15:00:41.704Z,4.60
2023-03-26T15:03:40.643Z,4.50
2023-03-26T15:06:34.891Z,4.50
2023-03-26T15:09:10.318Z,4.43
2023-03-26T15:11:51.059Z,4.40
2023-03-26T15:14:52.067Z,4.53
2023-03-26T15:17:50.903Z,5.37
2023-03-26T15:20:55.707Z,4.27
2023-03-26T15:23:48.475Z,4.80
2023-03-26T15:27:10.219Z,4.37
2023-03-26T15:30:05.512Z,4.53
2023-03-26T15:33:07.495Z,4.50
2023-03-26T15:35:57.452Z,4.40
2023-03-26T15:38:30.183Z,4.30
2023-03-26T15:40:59.651Z,4.00
2023-03-26T15:44:22.589Z,4.53
2023-03-26T15:46:53.862Z,4.03
2023-03-26T15:49:37.723Z,4.80
2023-03-26T15:52:05.372Z,4.47
2023-03-26T15:54:59.622Z,4.50
2023-03-26T15:57:41.159Z,5.07
2023-03-26T16:00:29.059Z,4.87
2023-03-26T16:03:10.874Z,4.87
2023-03-26T16:06:21.934Z,4.53
2023-03-26T16:09:12.544Z,5.07
2023-03-26T16:12:00.029Z,5.13
2023-03-26T16:15:14.595Z,5.53
2023-03-26T16:18:05.824Z,5.03
2023-03-26T16:20:46.679Z,5.13
2023-03-26T16:23:24.016Z,5.80
2023-03-26T16:26:07.519Z,4.97
2023-03-26T16:28:36.447Z,5.70
2023-03-26T16:31:36.775Z,5.10
2023-03-26T16:34:21.407Z,5.17
2023-03-26T16:36:51.329Z,5.63
2023-03-26T16:39:23.604Z,6.67
2023-03-26T16:42:06.444Z,6.43
2023-03-26T16:44:51.644Z,6.30
2023-03-26T16:48:15.341Z,6.80
2023-03-26T16:51:19.012Z,6.97
2023-03-26T16:53:58.129Z,6.73
2023-03-26T16:56:48.068Z,7.20
2023-03-26T17:00:13.878Z,7.00
2023-03-26T17:03:16.740Z,9.23
2023-03-26T17:05:58.362Z,9.53
2023-03-26T17:08:42.218Z,10.73
2023-03-26T17:11:40.118Z,9.67
2023-03-26T17:14:28.855Z,9.53
2023-03-26T17:17:30.847Z,9.63
2023-03-26T17:20:21.416Z,9.67
2023-03-26T17:22:57.705Z,9.77
2023-03-26T17:25:33.335Z,9.57
2023-03-26T17:28:18.280Z,9.20
2023-03-26T17:31:33.082Z,9.87
2023-03-26T17:34:37.150Z,8.30
2023-03-26T17:37:27.700Z,8.73
2023-03-26T17:40:00.272Z,9.00
2023-03-26T17:42:35.435Z,9.37
2023-03-26T17:45:07.823Z,8.03
2023-03-26T17:47:56.151Z,8.50
2023-03-26T17:50:41.011Z,7.70
2023-03-26T17:53:30.895Z,8.07
2023-03-26T17:56:03.158Z,7.57
2023-03-26T17:58:32.485Z,7.10
2023-03-26T18:01:26.947Z,7.73
2023-03-26T18:04:00.269Z,7.67
2023-03-26T18:06:36.001Z,7.13
2023-03-26T18:09:20.164Z,6.97
2023-03-26T18:12:05.365Z,6.23
2023-03-26T18:14:43.877Z,7.00
2023-03-26T18:17:11.272Z,6.93
2023-03-26T18:19:52.941Z,7.00
2023-03-26T18:22:26.554Z,6.53
2023-03-26T18:24:59.500Z,7.03
2023-03-26T18:27:36.807Z,7.07
2023-03-26T18:30:22.524Z,7.20
2023-03-26T18:33:03.929Z,6.70
2023-03-26T18:35:59.914Z,6.57
2023-03-26T18:38:35.643Z,6.57
2023-03-26T18:41:06.317Z,6.70
2023-03-26T18:43:35.581Z,7.77
2023-03-26T18:46:03.957Z,6.60
2023-03-26T18:48:30.670Z,6.97
2023-03-26T18:51:04.731Z,7.83
2023-03-26T18:53:40.627Z,7.27
2023-03-26T18:56:38.660Z,6.93
2023-03-26T18:59:17.380Z,6.17
2023-03-26T19:01:47.288Z,6.50
2023-03-26T19:04:15.245Z,8.07
2023-03-26T19:06:43.141Z,7.20
2023-03-26T19:09:23.821Z,7.97
2023-03-26T19:11:57.100Z,6.60
2023-03-26T19:14:25.135Z,7.23
2023-03-26T19:16:57.074Z,7.13
2023-03-26T19:19:29.206Z,6.67
2023-03-26T19:21:58.425Z,6.50
2023-03-26T19:24:26.873Z,7.03
2023-03-26T19:26:53.531Z,7.00
2023-03-26T19:29:30.921Z,6.80
2023-03-26T19:32:18.040Z,6.73
2023-03-26T19:34:46.604Z,6.53
2023-03-26T19:37:22.731Z,7.43
2023-03-26T19:39:54.257Z,6.73
2023-03-26T19:42:26.535Z,6.90
2023-03-26T19:44:54.147Z,6.47
2023-03-26T19:47:39.334Z,6.47
2023-03-26T19:50:28.896Z,7.37
2023-03-26T19:53:19.011Z,6.57
2023-03-26T19:55:57.506Z,7.37
2023-03-26T19:58:27.561Z,6.83
2023-03-26T20:00:56.058Z,7.20
2023-03-26T20:03:36.699Z,7.63
2023-03-26T20:06:03.487Z,7.00
2023-03-26T20:08:30.023Z,7.17
2023-03-26T20:10:57.721Z,7.60
2023-03-26T20:13:24.754Z,7.20
2023-03-26T20:16:05.778Z,6.27
2023-03-26T20:18:33.971Z,6.27
2023-03-26T20:21:00.639Z,7.27
2023-03-26T20:23:28.779Z,6.47
2023-03-26T20:25:55.706Z,6.70
2023-03-26T20:28:24.165Z,6.50
2023-03-26T20:30:50.953Z,6.40
2023-03-26T20:33:26.492Z,6.50
2023-03-26T20:35:55.374Z,6.70
2023-03-26T20:38:36.676Z,6.37
2023-03-26T20:41:12.055Z,6.23
2023-03-26T20:43:38.691Z,6.80
2023-03-26T20:46:05.576Z,5.97
2023-03-26T20:48:32.465Z,5.93
2023-03-26T20:50:59.008Z,6.40
2023-03-26T20:53:25.540Z,5.13
2023-03-26T20:55:52.316Z,5.93
2023-03-26T20:58:31.189Z,6.43
2023-03-26T21:01:01.535Z,6.60
2023-03-26T21:03:28.290Z,6.93
2023-03-26T21:05:59.968Z,6.60
2023-03-26T21:08:29.998Z,6.67
2023-03-26T21:11:01.878Z,6.17
2023-03-26T21:14:00.763Z,6.33
2023-03-26T21:16:27.684Z,6.40
2023-03-26T21:18:54.559Z,6.53
2023-03-26T21:21:52.405Z,7.13
2023-03-26T21:24:50.558Z,6.57
2023-03-26T21:27:27.200Z,6.50
2023-03-26T21:29:55.033Z,5.60
2023-03-26T21:32:22.697Z,6.70
2023-03-26T21:34:58.769Z,6.33
2023-03-26T21:37:26.752Z,5.90
2023-03-26T21:39:53.554Z,7.50
2023-03-26T21:42:20.388Z,6.33
2023-03-26T21:44:47.521Z,6.10
2023-03-26T21:47:14.722Z,6.20
2023-03-26T21:49:41.429Z,6.90
2023-03-26T21:52:15.151Z,7.27
2023-03-26T21:54:42.778Z,6.50
2023-03-26T21:57:27.255Z,6.40
2023-03-26T22:00:14.633Z,6.60
2023-03-26T22:02:56.101Z,5.77
2023-03-26T22:05:52.500Z,7.20
2023-03-26T22:08:40.672Z,6.17
2023-03-26T22:11:09.026Z,6.00
2023-03-26T22:13:36.628Z,6.20
2023-03-26T22:16:03.230Z,6.37
2023-03-26T22:18:30.002Z,7.13
2023-03-26T22:20:57.581Z,6.90
2023-03-26T22:23:24.245Z,6.37
2023-03-26T22:25:51.342Z,6.87
2023-03-26T22:28:19.141Z,7.00
2023-03-26T22:30:46.209Z,6.83
2023-03-26T22:33:12.839Z,6.60
2023-03-26T22:35:41.791Z,6.20
2023-03-26T22:38:09.504Z,6.50
2023-03-26T22:40:36.056Z,6.43
2023-03-26T22:43:02.646Z,6.93
2023-03-26T22:45:30.071Z,7.10
2023-03-26T22:48:03.580Z,7.40
2023-03-26T22:50:31.565Z,6.90
2023-03-26T22:52:58.157Z,6.73
2023-03-26T22:55:28.353Z,6.30
2023-03-26T22:57:56.979Z,7.13
2023-03-26T23:00:23.787Z,7.10
2023-03-26T23:02:50.349Z,7.43
2023-03-26T23:05:17.785Z,7.30
2023-03-26T23:07:45.857Z,6.77
2023-03-26T23:10:12.995Z,7.00
2023-03-26T23:12:41.152Z,7.53
2023-03-26T23:15:09.453Z,7.40
2023-03-26T23:17:37.389Z,7.00
2023-03-26T23:20:14.339Z,6.73
2023-03-26T23:22:42.756Z,6.80
2023-03-26T23:25:10.707Z,6.70
2023-03-26T23:27:37.895Z,6.70
2023-03-26T23:30:05.577Z,6.67
2023-03-26T23:32:32.905Z,6.70
2023-03-26T23:34:59.482Z,7.63
2023-03-26T23:37:26.056Z,7.00
2023-03-26T23:39:52.775Z,6.70
2023-03-26T23:42:28.475Z,7.50
2023-03-26T23:44:56.709Z,7.33
2023-03-26T23:47:23.435Z,7.30
2023-03-26T23:49:50.677Z,7.20
2023-03-26T23:52:17.202Z,7.27
2023-03-26T23:54:44.919Z,7.80
2023-03-26T23:57:11.688Z,7.87
2023-03-26T23:59:38.435Z,9.07
